Time;durP1;ratioP1;P1;durP2;ratioP2;P2;SDS_P1;SDS_P2;PMS_P1;PMS_P2;Temp;Humidity;BMP_temperature;BMP_pressure;BME280_temperature;BME280_humidity;BME280_pressure;Samples;Min_cycle;Max_cycle;Signal;HPM_P1;HPM_P2
2023/03/07 00:00:39;;;;;;;30.40;11.68;;;1.80;99.90;;;;;;4912256;29;20060;-66
2023/03/07 00:03:04;;;;;;;36.70;12.68;;;1.80;99.90;;;;;;4922982;29;20035;-67
2023/03/07 00:05:31;;;;;;;32.47;11.82;;;1.80;99.90;;;;;;4930566;29;20115;-66
2023/03/07 00:07:57;;;;;;;29.17;11.43;;;1.90;99.90;;;;;;4930145;29;20035;-66
2023/03/07 00:10:23;;;;;;;33.13;11.90;;;1.90;99.90;;;;;;4938118;29;20129;-66
2023/03/07 00:12:49;;;;;;;31.73;11.75;;;1.90;99.90;;;;;;4950886;29;20055;-66
2023/03/07 00:15:15;;;;;;;34.30;11.32;;;1.90;99.90;;;;;;4950301;28;20032;-69
2023/03/07 00:17:41;;;;;;;30.38;11.40;;;1.90;99.90;;;;;;4942274;29;20047;-68
2023/03/07 00:20:10;;;;;;;32.25;11.43;;;1.90;99.90;;;;;;4917267;29;20110;-66
2023/03/07 00:22:36;;;;;;;30.20;11.23;;;1.90;99.90;;;;;;4929603;29;20094;-66
2023/03/07 00:25:02;;;;;;;31.90;11.40;;;1.90;99.90;;;;;;4942203;29;20035;-66
2023/03/07 00:27:30;;;;;;;30.08;11.50;;;1.90;99.90;;;;;;4933765;29;20054;-66
2023/03/07 00:29:56;;;;;;;32.47;11.88;;;1.90;99.90;;;;;;4948762;29;20089;-65
2023/03/07 00:32:22;;;;;;;31.45;11.10;;;1.80;99.90;;;;;;4950021;29;20472;-65
2023/03/07 00:34:48;;;;;;;37.47;12.60;;;1.80;99.90;;;;;;4949188;29;20045;-66
2023/03/07 00:37:14;;;;;;;31.75;11.68;;;1.80;99.90;;;;;;4947826;29;20031;-67
2023/03/07 00:39:41;;;;;;;28.67;11.07;;;1.80;99.90;;;;;;4918278;29;20111;-66
2023/03/07 00:42:07;;;;;;;26.63;10.18;;;1.80;99.90;;;;;;4929947;29;20091;-67
2023/03/07 00:44:33;;;;;;;31.13;10.93;;;1.80;99.90;;;;;;4929366;29;20036;-67
2023/03/07 00:46:59;;;;;;;28.33;11.07;;;1.80;99.90;;;;;;4920927;29;20032;-66
2023/03/07 00:49:25;;;;;;;32.33;11.52;;;1.80;99.90;;;;;;4918906;29;20046;-66
2023/03/07 00:51:50;;;;;;;35.63;11.35;;;1.70;99.90;;;;;;4938396;29;20078;-67
2023/03/07 00:54:16;;;;;;;29.42;11.18;;;1.80;99.90;;;;;;4930611;29;20029;-66
2023/03/07 00:56:42;;;;;;;31.42;10.90;;;1.80;99.90;;;;;;4931393;29;20035;-66
2023/03/07 00:59:08;;;;;;;27.77;10.27;;;1.70;99.90;;;;;;4929859;29;20401;-66
2023/03/07 01:01:43;;;;;;;32.08;11.05;;;1.70;99.90;;;;;;4930286;29;20411;-66
2023/03/07 01:04:09;;;;;;;31.85;11.30;;;1.70;99.90;;;;;;4934408;29;20035;-66
2023/03/07 01:06:34;;;;;;;32.28;12.30;;;1.60;99.90;;;;;;4949450;29;20031;-65
2023/03/07 01:09:04;;;;;;;29.98;11.48;;;1.60;99.90;;;;;;4939866;29;20170;-66
2023/03/07 01:11:30;;;;;;;27.95;10.55;;;1.60;99.90;;;;;;4911622;29;20044;-67
2023/03/07 01:13:58;;;;;;;28.95;10.63;;;1.70;99.90;;;;;;4915906;29;20040;-65
2023/03/07 01:16:28;;;;;;;34.30;11.27;;;1.70;99.90;;;;;;4929217;29;20381;-69
2023/03/07 01:18:55;;;;;;;;;;;1.70;99.90;;;;;;4915012;29;20096;-66
2023/03/07 01:21:24;;;;;;;31.60;11.20;;;1.70;99.90;;;;;;4938779;29;19922;-69
2023/03/07 01:23:50;;;;;;;30.30;11.55;;;1.70;99.90;;;;;;4949248;29;20031;-67
2023/03/07 01:26:21;;;;;;;29.67;9.77;;;1.60;99.90;;;;;;4949834;28;20406;-65
2023/03/07 01:28:49;;;;;;;31.50;11.30;;;1.70;99.90;;;;;;4945773;29;20489;-67
2023/03/07 01:31:15;;;;;;;30.83;11.43;;;1.70;99.90;;;;;;4926110;29;20123;-67
2023/03/07 01:33:41;;;;;;;26.77;9.93;;;1.70;99.90;;;;;;4914177;29;20107;-68
2023/03/07 01:36:33;;;;;;;33.53;11.57;;;1.70;99.90;;;;;;4952409;29;20077;-67
2023/03/07 01:39:05;;;;;;;28.60;10.80;;;1.70;99.90;;;;;;4935850;29;20050;-66
2023/03/07 01:41:31;;;;;;;33.60;11.20;;;1.70;99.90;;;;;;4918358;29;20032;-67
2023/03/07 01:44:04;;;;;;;28.33;9.73;;;1.70;99.90;;;;;;4933720;29;20036;-67
2023/03/07 01:46:53;;;;;;;31.90;10.82;;;1.70;99.90;;;;;;4931272;29;20070;-68
2023/03/07 01:49:24;;;;;;;30.95;10.30;;;1.70;99.90;;;;;;4930202;29;20536;-67
2023/03/07 01:52:10;;;;;;;27.25;10.10;;;1.70;99.90;;;;;;4917343;29;20063;-67
2023/03/07 01:54:47;;;;;;;28.52;11.23;;;1.80;99.90;;;;;;4949408;29;20071;-67
2023/03/07 01:57:14;;;;;;;30.10;10.52;;;1.80;99.90;;;;;;4934098;29;20039;-67
2023/03/07 01:59:44;;;;;;;28.63;9.40;;;1.80;99.90;;;;;;4933760;29;20119;-66
2023/03/07 02:02:16;;;;;;;27.40;9.98;;;1.80;99.90;;;;;;4935861;29;20028;-67
2023/03/07 02:04:50;;;;;;;31.35;10.10;;;1.80;99.90;;;;;;4932608;29;20040;-68
2023/03/07 02:07:19;;;;;;;27.15;10.13;;;1.80;99.90;;;;;;4933327;29;20115;-68
2023/03/07 02:09:46;;;;;;;28.63;8.90;;;1.80;99.90;;;;;;4934864;29;20058;-66
2023/03/07 02:12:13;;;;;;;31.30;10.35;;;1.80;99.90;;;;;;4932162;29;20042;-66
2023/03/07 02:14:43;;;;;;;30.80;10.88;;;1.80;99.90;;;;;;4911994;29;20061;-66
2023/03/07 02:17:08;;;;;;;26.73;9.05;;;1.80;99.90;;;;;;4929205;29;20540;-66
2023/03/07 02:19:43;;;;;;;24.98;9.57;;;1.80;99.90;;;;;;4952039;29;20114;-66
2023/03/07 02:22:10;;;;;;;27.60;9.65;;;1.80;99.90;;;;;;4936470;29;20043;-67
2023/03/07 02:24:57;;;;;;;27.92;10.15;;;1.80;99.90;;;;;;4934615;29;20043;-66
2023/03/07 02:27:24;;;;;;;29.00;10.13;;;1.80;99.90;;;;;;4918081;29;20052;-67
2023/03/07 02:29:50;;;;;;;24.63;9.38;;;1.80;99.90;;;;;;4930074;29;20131;-67
2023/03/07 02:32:16;;;;;;;26.30;9.43;;;1.70;99.90;;;;;;4928415;29;20031;-67
2023/03/07 02:34:42;;;;;;;29.15;10.07;;;1.80;99.90;;;;;;4912849;29;20087;-66
2023/03/07 02:37:36;;;;;;;26.40;9.25;;;1.70;99.90;;;;;;4917267;29;20040;-67
2023/03/07 02:40:06;;;;;;;29.85;9.27;;;1.80;99.90;;;;;;4948605;29;20059;-67
2023/03/07 02:42:36;;;;;;;26.67;9.68;;;1.80;99.90;;;;;;4950025;29;20031;-66
2023/03/07 02:45:08;;;;;;;29.40;9.80;;;1.80;99.90;;;;;;4914330;29;20051;-69
2023/03/07 02:47:34;;;;;;;30.55;10.07;;;1.80;99.90;;;;;;4932358;29;20059;-66
2023/03/07 02:50:00;;;;;;;29.17;10.45;;;1.80;99.90;;;;;;4934452;29;20103;-67
2023/03/07 02:52:29;;;;;;;29.08;10.52;;;1.80;99.90;;;;;;4935746;29;20035;-69
2023/03/07 02:54:55;;;;;;;26.85;9.90;;;1.80;99.90;;;;;;4949717;29;20379;-67
2023/03/07 02:57:21;;;;;;;29.58;9.90;;;1.80;99.90;;;;;;4940458;29;20031;-67
2023/03/07 02:59:46;;;;;;;26.85;9.43;;;1.80;99.90;;;;;;4950003;29;20037;-67
2023/03/07 03:02:12;;;;;;;27.60;9.73;;;1.80;99.90;;;;;;4919597;29;20111;-67
2023/03/07 03:04:37;;;;;;;29.65;10.20;;;1.80;99.90;;;;;;4931854;29;20035;-66
2023/03/07 03:07:03;;;;;;;28.70;10.77;;;1.80;99.90;;;;;;4946328;29;20042;-66
2023/03/07 03:09:30;;;;;;;29.58;9.73;;;1.70;99.90;;;;;;4933608;29;20126;-69
2023/03/07 03:11:56;;;;;;;27.70;10.43;;;1.70;99.90;;;;;;4913453;29;20039;-67
2023/03/07 03:14:21;;;;;;;29.20;10.05;;;1.70;99.90;;;;;;4948132;29;20125;-66
2023/03/07 03:16:47;;;;;;;31.35;10.93;;;1.70;99.90;;;;;;4939457;29;20058;-67
2023/03/07 03:19:13;;;;;;;29.15;10.57;;;1.70;99.90;;;;;;4951812;29;20118;-66
2023/03/07 03:21:38;;;;;;;26.30;9.68;;;1.60;99.90;;;;;;4947413;29;20031;-66
2023/03/07 03:24:06;;;;;;;30.40;11.05;;;1.60;99.90;;;;;;4950309;29;20038;-66
2023/03/07 03:26:32;;;;;;;34.30;11.30;;;1.50;99.90;;;;;;4934484;29;20126;-68
2023/03/07 03:28:58;;;;;;;34.20;10.25;;;1.50;99.90;;;;;;4937174;29;20396;-66
2023/03/07 03:31:24;;;;;;;32.00;11.18;;;1.50;99.90;;;;;;4926437;29;20035;-65
2023/03/07 03:33:51;;;;;;;33.80;10.20;;;1.50;99.90;;;;;;4931395;29;20028;-65
2023/03/07 03:36:17;;;;;;;29.00;10.88;;;1.40;99.90;;;;;;4932503;29;20107;-66
2023/03/07 03:38:43;;;;;;;31.85;11.57;;;1.40;99.90;;;;;;4939967;29;20439;-66
2023/03/07 03:41:17;;;;;;;36.08;10.77;;;1.30;99.90;;;;;;4939457;29;20035;-65
2023/03/07 03:43:42;;;;;;;31.20;10.85;;;1.40;99.90;;;;;;4940639;29;20932;-65
2023/03/07 03:46:08;;;;;;;31.40;10.57;;;1.40;99.90;;;;;;4922872;29;20135;-66
2023/03/07 03:48:34;;;;;;;34.53;11.80;;;1.40;99.90;;;;;;4931693;29;20178;-67
2023/03/07 03:51:01;;;;;;;32.17;11.27;;;1.40;99.90;;;;;;4937719;29;20031;-66
2023/03/07 03:53:28;;;;;;;34.08;11.50;;;1.40;99.90;;;;;;4930365;29;20028;-66
2023/03/07 03:56:03;;;;;;;35.15;11.88;;;1.40;99.90;;;;;;4945527;29;20042;-66
2023/03/07 03:58:29;;;;;;;35.13;11.38;;;1.40;99.90;;;;;;4932258;29;20035;-69
2023/03/07 04:00:55;;;;;;;34.05;11.25;;;1.30;99.90;;;;;;4931835;29;20034;-66
2023/03/07 04:03:21;;;;;;;32.45;11.60;;;1.30;99.90;;;;;;4945757;29;20036;-67
2023/03/07 04:05:46;;;;;;;27.38;10.05;;;1.30;99.90;;;;;;4930164;29;20401;-67
2023/03/07 04:08:12;;;;;;;38.15;11.52;;;1.30;99.90;;;;;;4933306;29;20211;-66
2023/03/07 04:10:40;;;;;;;32.97;11.88;;;1.30;99.90;;;;;;4911488;29;20032;-67
2023/03/07 04:13:06;;;;;;;37.33;11.25;;;1.30;99.90;;;;;;4941311;29;20035;-66
2023/03/07 04:15:31;;;;;;;34.03;11.60;;;1.30;99.90;;;;;;4936184;29;20091;-70
2023/03/07 04:17:57;;;;;;;33.85;11.50;;;1.30;99.90;;;;;;4945455;29;20044;-66
2023/03/07 04:20:23;;;;;;;32.85;10.95;;;1.30;99.90;;;;;;4948799;29;20634;-66
2023/03/07 04:22:49;;;;;;;35.83;11.73;;;1.40;99.90;;;;;;4950028;29;20038;-67
2023/03/07 04:25:14;;;;;;;33.55;11.93;;;1.40;99.90;;;;;;4946061;29;20028;-67
2023/03/07 04:27:40;;;;;;;31.42;10.88;;;1.50;99.90;;;;;;4940652;29;20712;-66
2023/03/07 04:30:06;;;;;;;33.30;10.35;;;1.60;99.90;;;;;;4950303;29;20035;-66
2023/03/07 04:32:35;;;;;;;29.30;11.07;;;1.70;99.90;;;;;;4932326;29;20040;-69
2023/03/07 04:35:01;;;;;;;28.90;11.60;;;1.70;99.90;;;;;;4931069;29;20035;-67
2023/03/07 04:37:30;;;;;;;29.75;11.18;;;1.70;99.90;;;;;;4931689;29;20429;-67
2023/03/07 04:39:56;;;;;;;33.35;11.48;;;1.80;99.90;;;;;;4928754;29;20042;-66
2023/03/07 04:42:24;;;;;;;34.55;10.43;;;1.80;99.90;;;;;;4950443;29;20035;-67
2023/03/07 04:44:52;;;;;;;29.27;10.25;;;1.80;99.90;;;;;;4944830;29;20039;-67
2023/03/07 04:47:18;;;;;;;27.50;9.85;;;1.90;99.90;;;;;;4927701;29;20078;-67
2023/03/07 04:49:43;;;;;;;29.13;10.73;;;1.90;99.90;;;;;;4928874;29;20449;-67
2023/03/07 04:52:09;;;;;;;24.83;10.00;;;1.90;99.90;;;;;;4931266;29;20040;-66
2023/03/07 04:54:34;;;;;;;27.52;10.27;;;2.00;99.90;;;;;;4930444;29;20110;-69
2023/03/07 04:57:00;;;;;;;32.40;10.77;;;2.00;99.90;;;;;;4938833;29;20087;-66
2023/03/07 04:59:26;;;;;;;26.90;10.30;;;2.00;99.90;;;;;;4950123;29;20117;-66
2023/03/07 05:01:51;;;;;;;31.48;10.45;;;2.00;99.90;;;;;;4937009;29;20035;-67
2023/03/07 05:04:17;;;;;;;29.02;10.07;;;2.00;99.90;;;;;;4954678;29;20071;-66
2023/03/07 05:06:42;;;;;;;27.98;10.02;;;2.10;99.90;;;;;;4949321;29;20043;-67
2023/03/07 05:09:08;;;;;;;24.60;8.75;;;2.00;99.90;;;;;;4933819;29;20499;-66
2023/03/07 05:11:34;;;;;;;29.25;10.60;;;2.10;99.90;;;;;;4921199;29;20527;-69
2023/03/07 05:13:59;;;;;;;28.52;9.75;;;2.10;99.90;;;;;;4915574;29;20039;-67
2023/03/07 05:16:25;;;;;;;25.67;8.93;;;2.10;99.90;;;;;;4934279;29;20388;-66
2023/03/07 05:18:51;;;;;;;28.35;9.60;;;2.20;99.90;;;;;;4940107;29;20118;-69
2023/03/07 05:21:16;;;;;;;31.30;10.02;;;2.10;99.90;;;;;;4936343;29;20396;-67
2023/03/07 05:23:42;;;;;;;29.23;10.27;;;2.20;99.90;;;;;;4933700;29;20031;-66
2023/03/07 05:26:07;;;;;;;29.27;10.13;;;2.20;99.90;;;;;;4933655;29;20040;-66
2023/03/07 05:28:33;;;;;;;27.55;9.00;;;2.20;99.90;;;;;;4947321;29;20139;-67
2023/03/07 05:30:58;;;;;;;28.20;9.60;;;2.20;99.90;;;;;;4928106;29;20040;-66
2023/03/07 05:33:24;;;;;;;27.98;9.18;;;2.20;99.90;;;;;;4915996;29;20465;-66
2023/03/07 05:35:50;;;;;;;24.60;8.90;;;2.20;99.90;;;;;;4927560;29;20031;-66
2023/03/07 05:38:15;;;;;;;33.92;10.55;;;2.20;99.90;;;;;;4934398;29;20028;-66
2023/03/07 05:40:41;;;;;;;24.67;8.82;;;2.20;99.90;;;;;;4932911;29;20440;-67
2023/03/07 05:43:07;;;;;;;25.45;10.02;;;2.20;99.90;;;;;;4934307;29;20095;-66
2023/03/07 05:45:33;;;;;;;27.27;9.82;;;2.30;99.90;;;;;;4929647;29;20039;-66
2023/03/07 05:47:58;;;;;;;27.42;9.18;;;2.20;99.90;;;;;;4933592;29;20335;-66
2023/03/07 05:50:24;;;;;;;27.63;9.27;;;2.30;99.90;;;;;;4933085;29;20038;-66
2023/03/07 05:52:51;;;;;;;28.90;10.00;;;2.30;99.90;;;;;;4932604;29;20035;-67
2023/03/07 05:55:17;;;;;;;28.65;9.95;;;2.30;99.90;;;;;;4933432;29;20031;-66
2023/03/07 05:57:43;;;;;;;27.27;9.85;;;2.30;99.90;;;;;;4933394;29;20036;-66
2023/03/07 06:00:10;;;;;;;30.85;9.23;;;2.30;99.90;;;;;;4927945;29;20035;-67
2023/03/07 06:02:35;;;;;;;28.33;9.82;;;2.30;99.90;;;;;;4918122;29;20056;-68
2023/03/07 06:05:01;;;;;;;31.10;10.07;;;2.30;99.90;;;;;;4930975;29;20068;-67
2023/03/07 06:07:27;;;;;;;32.38;10.38;;;2.30;99.90;;;;;;4923211;29;20536;-66
2023/03/07 06:09:52;;;;;;;24.67;9.68;;;2.20;99.90;;;;;;4920052;29;20495;-65
2023/03/07 06:12:18;;;;;;;23.90;8.63;;;2.30;99.90;;;;;;4932612;29;20046;-66
2023/03/07 06:14:43;;;;;;;22.92;7.88;;;2.30;99.90;;;;;;4922060;29;20051;-66
2023/03/07 06:17:09;;;;;;;25.23;9.05;;;2.40;99.90;;;;;;4928257;29;20032;-66
2023/03/07 06:19:38;;;;;;;30.90;9.18;;;2.40;99.90;;;;;;4915877;29;20397;-66
2023/03/07 06:22:03;;;;;;;25.92;9.32;;;2.40;99.90;;;;;;4946062;29;20563;-67
2023/03/07 06:24:29;;;;;;;30.10;10.50;;;2.40;99.90;;;;;;4932570;29;20078;-66
2023/03/07 06:26:54;;;;;;;23.20;8.82;;;2.30;99.90;;;;;;4923184;29;20150;-66
2023/03/07 06:29:20;;;;;;;25.48;9.07;;;2.30;99.90;;;;;;4932982;29;20032;-67
2023/03/07 06:31:46;;;;;;;28.98;9.70;;;2.40;99.90;;;;;;4929463;29;20036;-66
2023/03/07 06:34:14;;;;;;;28.55;9.55;;;2.40;99.90;;;;;;4931723;29;20461;-67
2023/03/07 06:36:42;;;;;;;35.15;9.65;;;2.40;99.90;;;;;;4914076;29;20039;-69
2023/03/07 06:39:08;;;;;;;24.13;8.98;;;2.40;99.90;;;;;;4935481;29;20035;-68
2023/03/07 06:41:34;;;;;;;24.98;9.50;;;2.40;99.90;;;;;;4947393;29;20088;-67
2023/03/07 06:43:59;;;;;;;28.98;9.68;;;2.40;99.90;;;;;;4933519;29;20035;-67
2023/03/07 06:46:25;;;;;;;24.10;9.35;;;2.50;99.90;;;;;;4931590;29;20036;-67
2023/03/07 06:48:51;;;;;;;24.02;8.98;;;2.40;99.90;;;;;;4942832;29;20039;-67
2023/03/07 06:51:16;;;;;;;28.73;9.35;;;2.40;99.90;;;;;;4934266;29;20093;-67
2023/03/07 06:53:42;;;;;;;27.05;9.65;;;2.50;99.90;;;;;;4942743;29;20062;-69
2023/03/07 06:56:08;;;;;;;24.23;9.43;;;2.50;99.90;;;;;;4944780;29;20039;-67
2023/03/07 06:58:33;;;;;;;26.25;9.38;;;2.50;99.90;;;;;;4940310;29;20038;-68
2023/03/07 07:00:59;;;;;;;28.65;10.50;;;2.50;99.90;;;;;;4935841;29;20118;-67
2023/03/07 07:03:24;;;;;;;27.13;9.60;;;2.50;99.90;;;;;;4945783;29;20031;-68
2023/03/07 07:05:50;;;;;;;26.38;9.85;;;2.50;99.90;;;;;;4937575;29;20031;-69
2023/03/07 07:08:16;;;;;;;23.15;8.73;;;2.60;99.90;;;;;;4938412;29;20027;-69
2023/03/07 07:10:42;;;;;;;25.23;9.43;;;2.60;99.90;;;;;;4923823;29;20481;-69
2023/03/07 07:13:08;;;;;;;33.33;10.05;;;2.70;99.90;;;;;;4947162;29;20035;-69
2023/03/07 07:15:33;;;;;;;25.25;9.48;;;2.70;99.90;;;;;;4933898;29;21195;-69
2023/03/07 07:17:59;;;;;;;27.42;9.63;;;2.70;99.90;;;;;;4940314;29;20206;-68
2023/03/07 07:20:25;;;;;;;22.40;8.52;;;2.70;99.90;;;;;;4934536;29;20078;-69
2023/03/07 07:22:51;;;;;;;30.60;9.27;;;2.80;99.90;;;;;;4931503;29;20040;-69
2023/03/07 07:25:16;;;;;;;27.50;9.27;;;2.80;99.90;;;;;;4931654;29;20042;-68
2023/03/07 07:27:42;;;;;;;28.90;9.45;;;2.90;99.90;;;;;;4947658;29;20058;-70
2023/03/07 07:30:08;;;;;;;24.58;9.00;;;2.90;99.90;;;;;;4931071;29;20152;-67
2023/03/07 07:32:34;;;;;;;26.27;9.95;;;3.00;99.90;;;;;;4925281;29;20031;-67
2023/03/07 07:35:00;;;;;;;30.90;9.60;;;3.00;99.90;;;;;;4925376;29;20409;-68
2023/03/07 07:37:25;;;;;;;27.02;9.30;;;3.00;99.90;;;;;;4925108;29;20035;-69
2023/03/07 07:39:51;;;;;;;28.10;9.57;;;3.00;99.90;;;;;;4921992;29;20043;-69
2023/03/07 07:42:17;;;;;;;25.13;9.73;;;3.00;99.90;;;;;;4921401;29;20510;-68
2023/03/07 07:44:42;;;;;;;22.10;8.40;;;3.00;99.90;;;;;;4923158;29;20031;-69
2023/03/07 07:47:08;;;;;;;23.88;8.23;;;3.00;99.90;;;;;;4924168;29;20031;-67
2023/03/07 07:49:34;;;;;;;29.42;8.98;;;3.00;99.90;;;;;;4930695;29;20716;-69
2023/03/07 07:52:00;;;;;;;26.50;9.48;;;3.00;99.90;;;;;;4932395;29;20032;-69
2023/03/07 07:54:26;;;;;;;22.13;8.50;;;3.00;99.90;;;;;;4930795;29;20035;-69
2023/03/07 07:56:52;;;;;;;25.20;8.77;;;3.00;99.90;;;;;;4930831;29;20521;-69
2023/03/07 07:59:18;;;;;;;35.70;8.60;;;3.00;99.90;;;;;;4923562;29;20186;-68
2023/03/07 08:01:44;;;;;;;22.40;7.57;;;3.10;99.90;;;;;;4931423;29;20040;-67
2023/03/07 08:04:10;;;;;;;24.75;8.77;;;3.00;99.90;;;;;;4929464;29;20032;-68
2023/03/07 08:06:35;;;;;;;20.67;7.10;;;3.00;99.90;;;;;;4925925;29;20032;-67
2023/03/07 08:09:01;;;;;;;23.77;8.68;;;3.10;99.90;;;;;;4932954;29;20503;-66
2023/03/07 08:11:27;;;;;;;25.45;8.52;;;3.10;99.90;;;;;;4930321;29;20032;-68
2023/03/07 08:13:53;;;;;;;22.80;8.48;;;3.10;99.90;;;;;;4936603;29;20765;-67
2023/03/07 08:16:21;;;;;;;20.70;8.15;;;3.20;99.90;;;;;;4932498;29;20028;-66
2023/03/07 08:18:56;;;;;;;21.65;7.80;;;3.20;99.90;;;;;;4931868;29;20027;-68
2023/03/07 08:21:23;;;;;;;21.35;7.47;;;3.30;99.90;;;;;;4930154;29;20031;-66
2023/03/07 08:23:49;;;;;;;25.60;8.95;;;3.30;99.90;;;;;;4921164;29;20040;-67
2023/03/07 08:26:16;;;;;;;22.38;7.82;;;3.40;99.90;;;;;;4924891;29;20401;-69
2023/03/07 08:28:42;;;;;;;23.48;8.18;;;3.40;99.90;;;;;;4934233;29;20117;-69
2023/03/07 08:31:16;;;;;;;25.35;8.75;;;3.50;99.90;;;;;;4928364;29;20885;-69
2023/03/07 08:33:42;;;;;;;20.95;7.90;;;3.50;99.90;;;;;;4920357;29;20508;-68
2023/03/07 08:36:08;;;;;;;21.65;7.70;;;3.50;99.90;;;;;;4929429;29;20383;-67
2023/03/07 08:38:34;;;;;;;26.80;8.43;;;3.50;99.90;;;;;;4931118;29;20737;-67
2023/03/07 08:41:01;;;;;;;24.17;8.25;;;3.60;99.90;;;;;;4929517;29;20035;-67
2023/03/07 08:43:28;;;;;;;26.02;7.95;;;3.70;99.90;;;;;;4937197;29;20027;-68
2023/03/07 08:45:54;;;;;;;22.40;7.38;;;3.80;99.90;;;;;;4934255;29;20059;-69
2023/03/07 08:48:20;;;;;;;21.67;8.13;;;3.80;99.90;;;;;;4944668;29;20491;-69
2023/03/07 08:50:45;;;;;;;25.67;8.80;;;3.80;99.90;;;;;;4927623;29;20046;-69
2023/03/07 08:53:13;;;;;;;20.92;7.60;;;3.90;99.90;;;;;;4932588;29;20046;-69
2023/03/07 08:55:39;;;;;;;19.15;7.22;;;4.00;99.90;;;;;;4927705;29;20040;-67
2023/03/07 08:58:04;;;;;;;19.75;7.30;;;3.90;99.90;;;;;;4925959;29;20087;-71
2023/03/07 09:00:30;;;;;;;20.98;7.53;;;3.90;99.90;;;;;;4931332;29;20384;-69
2023/03/07 09:02:57;;;;;;;19.55;7.90;;;3.90;99.90;;;;;;4928178;29;20492;-69
2023/03/07 09:05:23;;;;;;;20.58;7.32;;;4.00;99.90;;;;;;4927405;29;20063;-70
2023/03/07 09:07:49;;;;;;;21.98;7.68;;;4.00;99.90;;;;;;4924911;29;20130;-69
2023/03/07 09:10:19;;;;;;;21.50;7.85;;;4.10;99.90;;;;;;4933245;29;20118;-70
2023/03/07 09:12:46;;;;;;;17.85;6.80;;;4.10;99.90;;;;;;4941799;29;20067;-68
2023/03/07 09:15:11;;;;;;;19.00;7.38;;;4.20;99.90;;;;;;4929750;29;20127;-70
2023/03/07 09:17:37;;;;;;;16.33;6.43;;;4.20;99.90;;;;;;4935666;29;20548;-69
2023/03/07 09:20:04;;;;;;;19.27;7.22;;;4.20;99.90;;;;;;4941963;29;20041;-69
2023/03/07 09:22:30;;;;;;;23.70;8.00;;;4.20;99.90;;;;;;4948017;29;20028;-70
2023/03/07 09:24:56;;;;;;;21.73;7.53;;;4.30;99.90;;;;;;4913647;29;20043;-68
2023/03/07 09:27:22;;;;;;;20.25;7.15;;;4.30;99.90;;;;;;4925682;29;20063;-68
2023/03/07 09:29:47;;;;;;;22.13;8.38;;;4.30;99.90;;;;;;4938161;29;20400;-69
2023/03/07 09:32:13;;;;;;;21.02;7.38;;;4.30;99.90;;;;;;4938178;29;20130;-70
2023/03/07 09:34:39;;;;;;;19.83;7.60;;;4.40;99.90;;;;;;4946150;29;20118;-69
2023/03/07 09:37:04;;;;;;;23.70;8.25;;;4.40;99.90;;;;;;4938518;29;20043;-68
2023/03/07 09:39:31;;;;;;;22.17;7.38;;;4.40;99.90;;;;;;4933731;29;20039;-70
2023/03/07 09:42:19;;;;;;;19.55;7.43;;;4.50;99.90;;;;;;4933584;29;20054;-68
2023/03/07 09:45:17;;;;;;;20.00;8.30;;;4.50;99.90;;;;;;4938527;29;20031;-70
2023/03/07 09:48:07;;;;;;;23.67;8.43;;;4.60;99.90;;;;;;4931620;29;20703;-70
2023/03/07 09:50:54;;;;;;;13.88;5.60;;;4.60;99.90;;;;;;4943054;29;20035;-69
2023/03/07 09:53:41;;;;;;;17.65;6.13;;;4.60;99.90;;;;;;4925626;29;20051;-69
2023/03/07 09:56:13;;;;;;;18.05;6.95;;;4.70;99.90;;;;;;4952370;29;20334;-69
2023/03/07 09:58:46;;;;;;;20.30;7.82;;;5.00;99.90;;;;;;4924018;29;20090;-69
2023/03/07 10:01:14;;;;;;;16.48;6.43;;;4.90;99.90;;;;;;4941880;29;20224;-67
2023/03/07 10:03:57;;;;;;;16.20;6.55;;;4.80;99.90;;;;;;4947472;29;20060;-68
2023/03/07 10:06:41;;;;;;;22.10;7.90;;;5.10;99.90;;;;;;4951593;29;20050;-69
2023/03/07 10:09:14;;;;;;;18.88;7.22;;;5.30;99.90;;;;;;4947083;29;20094;-70
2023/03/07 10:11:59;;;;;;;19.73;6.90;;;5.20;99.90;;;;;;4950789;29;20412;-69
2023/03/07 10:14:38;;;;;;;16.83;6.43;;;5.10;99.90;;;;;;4930908;29;20047;-68
2023/03/07 10:17:13;;;;;;;18.13;6.75;;;4.90;99.90;;;;;;4921483;29;20066;-67
2023/03/07 10:19:49;;;;;;;18.48;6.68;;;4.70;99.90;;;;;;4943200;29;20043;-70
2023/03/07 10:22:21;;;;;;;13.68;5.47;;;4.60;99.90;;;;;;4938823;29;20035;-69
2023/03/07 10:25:23;;;;;;;15.48;6.07;;;4.50;99.90;;;;;;4937804;29;20042;-70
2023/03/07 10:27:52;;;;;;;17.42;6.97;;;4.50;99.90;;;;;;4937972;29;20523;-70
2023/03/07 10:30:19;;;;;;;19.70;7.15;;;4.50;99.90;;;;;;4935791;29;20050;-69
2023/03/07 10:32:50;;;;;;;18.63;7.65;;;4.50;99.90;;;;;;4925119;29;20068;-69
2023/03/07 10:35:19;;;;;;;27.40;7.40;;;4.60;99.90;;;;;;4937896;29;20036;-69
2023/03/07 10:37:55;;;;;;;17.45;7.03;;;4.60;99.90;;;;;;4929684;29;20071;-68
2023/03/07 10:40:34;;;;;;;18.30;6.72;;;4.70;99.90;;;;;;4932151;29;20205;-69
2023/03/07 10:43:00;;;;;;;20.27;7.50;;;4.70;99.90;;;;;;4946107;29;20036;-71
2023/03/07 10:45:31;;;;;;;18.50;6.80;;;4.70;99.90;;;;;;4928833;29;20087;-69
2023/03/07 10:48:08;;;;;;;19.10;6.90;;;4.70;99.90;;;;;;4936312;29;20141;-68
2023/03/07 10:50:34;;;;;;;19.40;7.25;;;4.50;99.90;;;;;;4933345;29;20038;-69
2023/03/07 10:53:03;;;;;;;20.33;6.80;;;4.40;99.90;;;;;;4950234;29;20031;-69
2023/03/07 10:55:31;;;;;;;18.08;6.68;;;4.40;99.90;;;;;;4937068;29;20586;-69
2023/03/07 10:58:12;;;;;;;19.77;7.05;;;4.40;99.90;;;;;;4932477;29;20536;-69
2023/03/07 11:00:37;;;;;;;19.27;7.00;;;4.40;99.90;;;;;;4936363;28;20439;-70
2023/03/07 11:03:03;;;;;;;15.18;6.15;;;4.50;99.90;;;;;;4932108;29;20067;-69
2023/03/07 11:05:35;;;;;;;16.70;6.18;;;4.50;99.90;;;;;;4931775;29;20062;-70
2023/03/07 11:08:25;;;;;;;18.60;7.15;;;4.50;99.90;;;;;;4932416;29;20024;-70
2023/03/07 11:10:50;;;;;;;13.40;4.70;;;4.50;99.90;;;;;;4933068;29;20110;-70
2023/03/07 11:13:19;;;;;;;13.95;5.63;;;4.50;99.90;;;;;;4931961;29;20745;-72
2023/03/07 11:15:45;;;;;;;15.10;5.97;;;4.50;99.90;;;;;;4934958;29;20027;-70
2023/03/07 11:18:30;;;;;;;13.60;5.45;;;4.50;99.90;;;;;;4937607;29;20067;-71
2023/03/07 11:20:57;;;;;;;13.15;5.35;;;4.50;99.90;;;;;;4940861;29;20488;-68
2023/03/07 11:23:30;;;;;;;15.48;5.82;;;4.60;99.90;;;;;;4941398;29;20059;-70
2023/03/07 11:26:13;;;;;;;11.77;5.05;;;4.60;99.90;;;;;;4931514;29;20111;-69
2023/03/07 11:28:40;;;;;;;14.25;5.20;;;4.50;99.90;;;;;;4942886;29;20047;-69
2023/03/07 11:31:20;;;;;;;17.10;6.13;;;4.50;99.90;;;;;;4924726;29;20387;-70
2023/03/07 11:33:59;;;;;;;14.45;5.35;;;4.60;99.90;;;;;;4943577;29;20019;-70
2023/03/07 11:36:31;;;;;;;17.75;6.15;;;4.40;99.90;;;;;;4951588;29;20031;-72
2023/03/07 11:39:02;;;;;;;14.63;5.88;;;4.30;99.90;;;;;;4925524;29;20175;-69
2023/03/07 11:41:37;;;;;;;17.35;6.20;;;4.40;99.90;;;;;;4927053;29;20042;-73
2023/03/07 11:44:24;;;;;;;18.42;6.53;;;4.40;99.90;;;;;;4933655;29;20039;-70
2023/03/07 11:47:28;;;;;;;17.98;6.65;;;4.40;99.90;;;;;;4922277;29;20640;-71
2023/03/07 11:50:15;;;;;;;17.20;5.95;;;4.40;99.90;;;;;;4932348;29;20040;-72
2023/03/07 11:52:51;;;;;;;17.60;6.38;;;4.40;99.90;;;;;;4931108;29;20118;-70
2023/03/07 11:55:43;;;;;;;17.02;6.28;;;4.50;99.90;;;;;;4931533;29;20640;-70
2023/03/07 11:58:33;;;;;;;18.20;6.05;;;4.50;99.90;;;;;;4926582;29;20119;-69
2023/03/07 12:00:58;;;;;;;20.52;6.63;;;4.50;99.90;;;;;;4928407;29;20035;-69
2023/03/07 12:04:01;;;;;;;17.90;6.15;;;4.50;99.90;;;;;;4950585;29;20031;-69
2023/03/07 12:06:49;;;;;;;16.83;5.90;;;4.40;99.90;;;;;;4933807;29;20059;-69
2023/03/07 12:09:59;;;;;;;16.30;6.75;;;4.50;99.90;;;;;;4938528;29;20174;-69
2023/03/07 12:13:05;;;;;;;18.77;6.03;;;4.50;99.90;;;;;;4909498;29;20225;-70
2023/03/07 12:16:02;;;;;;;17.50;5.80;;;4.60;99.90;;;;;;4886680;29;20048;-68
2023/03/07 12:19:02;;;;;;;18.13;6.47;;;4.70;99.90;;;;;;4913948;29;20028;-70
2023/03/07 12:21:57;;;;;;;;;;;4.60;99.90;;;;;;4917707;29;20366;-69
2023/03/07 12:24:54;;;;;;;17.25;5.97;;;4.50;99.90;;;;;;4911559;29;19914;-69
2023/03/07 12:27:29;;;;;;;18.92;6.07;;;4.50;99.90;;;;;;4949739;29;20059;-68
2023/03/07 12:30:17;;;;;;;18.10;6.57;;;4.40;99.90;;;;;;4929637;29;20039;-69
2023/03/07 12:32:43;;;;;;;17.08;6.78;;;4.30;99.90;;;;;;4931524;29;20127;-68
2023/03/07 12:35:23;;;;;;;19.00;6.88;;;4.20;99.90;;;;;;4939490;29;20039;-68
2023/03/07 12:37:57;;;;;;;20.27;6.93;;;4.20;99.90;;;;;;4928896;29;20039;-69
2023/03/07 12:40:28;;;;;;;21.83;7.80;;;4.10;99.90;;;;;;4930273;29;20559;-69
2023/03/07 12:43:16;;;;;;;20.08;6.20;;;4.10;99.90;;;;;;4931108;29;20499;-70
2023/03/07 12:46:01;;;;;;;16.13;5.47;;;4.10;99.90;;;;;;4931244;29;20765;-70
2023/03/07 12:48:29;;;;;;;17.23;6.53;;;4.10;99.90;;;;;;4913879;29;20032;-69
2023/03/07 12:51:05;;;;;;;19.23;6.47;;;4.10;99.90;;;;;;4911859;29;20100;-70
2023/03/07 12:53:45;;;;;;;20.30;6.68;;;4.10;99.90;;;;;;4912460;29;20040;-70
2023/03/07 12:56:20;;;;;;;18.85;7.38;;;4.10;99.90;;;;;;4917870;29;20027;-70